sensor_id;sensor_type;location;lat;lon;timestamp;temperature;humidity
41324;DHT22;27073;51.128;4.220;2023-06-04T00:01:21;19.50;1.00
41324;DHT22;27073;51.128;4.220;2023-06-04T00:03:47;19.50;99.90
41324;DHT22;27073;51.128;4.220;2023-06-04T00:06:12;19.40;53.00
41324;DHT22;27073;51.128;4.220;2023-06-04T00:08:38;19.40;99.90
41324;DHT22;27073;51.128;4.220;2023-06-04T00:11:04;19.40;6.80
41324;DHT22;27073;51.128;4.220;2023-06-04T00:13:29;19.30;99.90
41324;DHT22;27073;51.128;4.220;2023-06-04T00:15:55;19.20;1.00
41324;DHT22;27073;51.128;4.220;2023-06-04T00:18:21;19.20;99.90
41324;DHT22;27073;51.128;4.220;2023-06-04T00:20:46;19.00;1.00
41324;DHT22;27073;51.128;4.220;2023-06-04T00:23:12;19.00;99.90
41324;DHT22;27073;51.128;4.220;2023-06-04T00:25:38;18.80;99.90
41324;DHT22;27073;51.128;4.220;2023-06-04T00:28:03;18.80;99.90
41324;DHT22;27073;51.128;4.220;2023-06-04T00:30:29;18.80;1.00
41324;DHT22;27073;51.128;4.220;2023-06-04T00:32:55;18.70;43.20
41324;DHT22;27073;51.128;4.220;2023-06-04T00:35:21;18.80;90.20
41324;DHT22;27073;51.128;4.220;2023-06-04T00:37:47;18.70;99.90
41324;DHT22;27073;51.128;4.220;2023-06-04T00:40:14;18.60;99.90
41324;DHT22;27073;51.128;4.220;2023-06-04T00:42:40;18.60;99.90
41324;DHT22;27073;51.128;4.220;2023-06-04T00:45:06;18.60;99.90
41324;DHT22;27073;51.128;4.220;2023-06-04T00:47:33;18.60;99.90
41324;DHT22;27073;51.128;4.220;2023-06-04T00:49:59;18.60;99.90
41324;DHT22;27073;51.128;4.220;2023-06-04T00:52:25;18.60;1.00
41324;DHT22;27073;51.128;4.220;2023-06-04T00:54:52;18.50;10.30
41324;DHT22;27073;51.128;4.220;2023-06-04T00:57:17;18.40;39.70
41324;DHT22;27073;51.128;4.220;2023-06-04T00:59:43;18.40;89.20
41324;DHT22;27073;51.128;4.220;2023-06-04T01:02:13;18.30;99.60
41324;DHT22;27073;51.128;4.220;2023-06-04T01:07:27;18.30;99.90
41324;DHT22;27073;51.128;4.220;2023-06-04T01:09:56;18.20;99.90
41324;DHT22;27073;51.128;4.220;2023-06-04T01:12:22;18.20;99.90
41324;DHT22;27073;51.128;4.220;2023-06-04T01:14:48;18.10;99.90
41324;DHT22;27073;51.128;4.220;2023-06-04T01:17:29;18.10;99.90
41324;DHT22;27073;51.128;4.220;2023-06-04T01:26:03;18.00;99.90
41324;DHT22;27073;51.128;4.220;2023-06-04T01:28:34;17.90;99.90
41324;DHT22;27073;51.128;4.220;2023-06-04T01:31:00;18.10;99.90
41324;DHT22;27073;51.128;4.220;2023-06-04T01:33:27;18.10;99.90
41324;DHT22;27073;51.128;4.220;2023-06-04T01:35:53;18.10;99.90
41324;DHT22;27073;51.128;4.220;2023-06-04T01:38:19;18.00;99.90
41324;DHT22;27073;51.128;4.220;2023-06-04T01:40:45;17.90;99.90
41324;DHT22;27073;51.128;4.220;2023-06-04T01:43:11;18.00;99.90
41324;DHT22;27073;51.128;4.220;2023-06-04T01:45:37;18.00;99.90
41324;DHT22;27073;51.128;4.220;2023-06-04T01:48:04;17.90;99.90
41324;DHT22;27073;51.128;4.220;2023-06-04T01:50:30;17.90;99.90
41324;DHT22;27073;51.128;4.220;2023-06-04T01:52:56;17.90;99.90
41324;DHT22;27073;51.128;4.220;2023-06-04T01:55:22;17.80;99.90
41324;DHT22;27073;51.128;4.220;2023-06-04T01:57:50;17.80;99.90
41324;DHT22;27073;51.128;4.220;2023-06-04T02:00:16;17.90;99.90
41324;DHT22;27073;51.128;4.220;2023-06-04T02:02:44;17.80;99.90
41324;DHT22;27073;51.128;4.220;2023-06-04T02:05:11;17.80;99.90
41324;DHT22;27073;51.128;4.220;2023-06-04T02:07:42;17.70;99.90
41324;DHT22;27073;51.128;4.220;2023-06-04T02:10:12;17.70;99.90
41324;DHT22;27073;51.128;4.220;2023-06-04T02:12:41;17.60;99.90
41324;DHT22;27073;51.128;4.220;2023-06-04T02:15:09;17.60;99.90
41324;DHT22;27073;51.128;4.220;2023-06-04T02:17:35;17.50;99.90
41324;DHT22;27073;51.128;4.220;2023-06-04T02:20:06;17.50;99.90
41324;DHT22;27073;51.128;4.220;2023-06-04T02:22:31;17.40;99.90
41324;DHT22;27073;51.128;4.220;2023-06-04T02:24:59;17.30;99.90
41324;DHT22;27073;51.128;4.220;2023-06-04T02:27:25;17.50;99.90
41324;DHT22;27073;51.128;4.220;2023-06-04T02:29:51;17.50;99.90
41324;DHT22;27073;51.128;4.220;2023-06-04T02:32:16;17.40;99.90
41324;DHT22;27073;51.128;4.220;2023-06-04T02:34:42;17.20;99.90
41324;DHT22;27073;51.128;4.220;2023-06-04T02:37:08;17.30;99.90
41324;DHT22;27073;51.128;4.220;2023-06-04T02:39:33;17.30;99.90
41324;DHT22;27073;51.128;4.220;2023-06-04T02:41:59;17.20;99.90
41324;DHT22;27073;51.128;4.220;2023-06-04T02:44:25;17.20;99.90
41324;DHT22;27073;51.128;4.220;2023-06-04T02:46:50;17.20;99.90
41324;DHT22;27073;51.128;4.220;2023-06-04T02:49:16;17.20;99.90
41324;DHT22;27073;51.128;4.220;2023-06-04T02:51:43;17.20;99.90
41324;DHT22;27073;51.128;4.220;2023-06-04T02:54:09;17.00;99.90
41324;DHT22;27073;51.128;4.220;2023-06-04T02:56:36;17.00;99.90
41324;DHT22;27073;51.128;4.220;2023-06-04T02:59:03;17.00;99.90
41324;DHT22;27073;51.128;4.220;2023-06-04T03:01:29;17.00;99.90
41324;DHT22;27073;51.128;4.220;2023-06-04T03:03:55;16.90;99.90
41324;DHT22;27073;51.128;4.220;2023-06-04T03:06:23;16.80;99.90
41324;DHT22;27073;51.128;4.220;2023-06-04T03:08:50;16.80;99.90
41324;DHT22;27073;51.128;4.220;2023-06-04T03:11:19;16.80;99.90
41324;DHT22;27073;51.128;4.220;2023-06-04T03:13:48;16.70;99.90
41324;DHT22;27073;51.128;4.220;2023-06-04T03:16:14;16.80;99.90
41324;DHT22;27073;51.128;4.220;2023-06-04T03:18:41;16.80;99.90
41324;DHT22;27073;51.128;4.220;2023-06-04T03:21:07;16.80;99.90
41324;DHT22;27073;51.128;4.220;2023-06-04T03:23:39;16.80;99.90
41324;DHT22;27073;51.128;4.220;2023-06-04T03:26:06;16.60;99.90
41324;DHT22;27073;51.128;4.220;2023-06-04T03:28:32;16.50;99.90
41324;DHT22;27073;51.128;4.220;2023-06-04T03:31:00;16.50;99.90
41324;DHT22;27073;51.128;4.220;2023-06-04T03:33:26;16.50;99.90
41324;DHT22;27073;51.128;4.220;2023-06-04T03:35:52;16.60;99.90
41324;DHT22;27073;51.128;4.220;2023-06-04T03:38:21;16.70;99.90
41324;DHT22;27073;51.128;4.220;2023-06-04T03:40:48;16.60;99.90
41324;DHT22;27073;51.128;4.220;2023-06-04T03:43:14;16.60;99.90
41324;DHT22;27073;51.128;4.220;2023-06-04T03:45:41;16.60;99.90
41324;DHT22;27073;51.128;4.220;2023-06-04T03:48:08;16.50;99.90
41324;DHT22;27073;51.128;4.220;2023-06-04T03:50:36;16.40;99.90
41324;DHT22;27073;51.128;4.220;2023-06-04T03:53:02;16.30;99.90
41324;DHT22;27073;51.128;4.220;2023-06-04T03:55:31;16.30;99.90
41324;DHT22;27073;51.128;4.220;2023-06-04T03:58:01;16.30;1.00
41324;DHT22;27073;51.128;4.220;2023-06-04T04:00:27;16.30;99.90
41324;DHT22;27073;51.128;4.220;2023-06-04T04:02:55;16.30;1.00
41324;DHT22;27073;51.128;4.220;2023-06-04T04:05:25;16.20;1.00
41324;DHT22;27073;51.128;4.220;2023-06-04T04:07:52;16.10;1.00
41324;DHT22;27073;51.128;4.220;2023-06-04T04:10:22;16.20;1.00
41324;DHT22;27073;51.128;4.220;2023-06-04T04:12:48;16.20;1.00
41324;DHT22;27073;51.128;4.220;2023-06-04T04:15:16;16.20;1.00
41324;DHT22;27073;51.128;4.220;2023-06-04T04:17:42;16.20;1.00
41324;DHT22;27073;51.128;4.220;2023-06-04T04:20:09;16.10;1.00
41324;DHT22;27073;51.128;4.220;2023-06-04T04:22:40;16.00;1.00
41324;DHT22;27073;51.128;4.220;2023-06-04T04:25:07;16.10;1.00
41324;DHT22;27073;51.128;4.220;2023-06-04T04:27:34;16.20;1.00
41324;DHT22;27073;51.128;4.220;2023-06-04T04:30:07;16.10;1.00
41324;DHT22;27073;51.128;4.220;2023-06-04T04:32:33;16.20;1.00
41324;DHT22;27073;51.128;4.220;2023-06-04T04:34:59;16.10;1.00
41324;DHT22;27073;51.128;4.220;2023-06-04T04:37:32;16.30;1.00
41324;DHT22;27073;51.128;4.220;2023-06-04T04:39:58;16.30;1.00
41324;DHT22;27073;51.128;4.220;2023-06-04T04:42:27;16.30;1.00
41324;DHT22;27073;51.128;4.220;2023-06-04T04:44:53;16.30;1.00
41324;DHT22;27073;51.128;4.220;2023-06-04T04:47:22;16.30;1.00
41324;DHT22;27073;51.128;4.220;2023-06-04T04:49:47;16.30;1.00
41324;DHT22;27073;51.128;4.220;2023-06-04T04:52:14;16.20;1.00
41324;DHT22;27073;51.128;4.220;2023-06-04T04:54:42;16.20;1.00
41324;DHT22;27073;51.128;4.220;2023-06-04T04:57:08;16.10;1.00
41324;DHT22;27073;51.128;4.220;2023-06-04T04:59:35;16.20;1.00
41324;DHT22;27073;51.128;4.220;2023-06-04T05:02:01;16.20;1.00
41324;DHT22;27073;51.128;4.220;2023-06-04T05:04:27;16.20;1.00
41324;DHT22;27073;51.128;4.220;2023-06-04T05:06:53;16.30;1.00
41324;DHT22;27073;51.128;4.220;2023-06-04T05:09:19;16.30;1.00
41324;DHT22;27073;51.128;4.220;2023-06-04T05:11:46;16.30;1.00
41324;DHT22;27073;51.128;4.220;2023-06-04T05:14:13;16.40;1.00
41324;DHT22;27073;51.128;4.220;2023-06-04T05:16:40;16.50;1.00
41324;DHT22;27073;51.128;4.220;2023-06-04T05:19:07;16.50;1.00
41324;DHT22;27073;51.128;4.220;2023-06-04T05:21:36;16.50;1.00
41324;DHT22;27073;51.128;4.220;2023-06-04T05:24:04;16.50;1.00
41324;DHT22;27073;51.128;4.220;2023-06-04T05:26:34;16.50;1.00
41324;DHT22;27073;51.128;4.220;2023-06-04T05:29:05;16.50;1.00
41324;DHT22;27073;51.128;4.220;2023-06-04T05:31:35;16.60;1.00
41324;DHT22;27073;51.128;4.220;2023-06-04T05:34:04;16.30;1.00
41324;DHT22;27073;51.128;4.220;2023-06-04T05:36:32;16.40;1.00
41324;DHT22;27073;51.128;4.220;2023-06-04T05:39:01;16.50;1.00
41324;DHT22;27073;51.128;4.220;2023-06-04T05:41:35;16.60;1.00
41324;DHT22;27073;51.128;4.220;2023-06-04T05:44:02;16.40;1.00
41324;DHT22;27073;51.128;4.220;2023-06-04T05:46:28;16.60;1.00
41324;DHT22;27073;51.128;4.220;2023-06-04T05:48:54;16.50;1.00
41324;DHT22;27073;51.128;4.220;2023-06-04T05:51:21;16.70;1.00
41324;DHT22;27073;51.128;4.220;2023-06-04T05:53:47;16.80;1.00
41324;DHT22;27073;51.128;4.220;2023-06-04T05:56:14;16.80;1.00
41324;DHT22;27073;51.128;4.220;2023-06-04T05:58:41;16.80;1.00
41324;DHT22;27073;51.128;4.220;2023-06-04T06:01:07;16.80;1.00
41324;DHT22;27073;51.128;4.220;2023-06-04T06:03:33;16.90;1.00
41324;DHT22;27073;51.128;4.220;2023-06-04T06:05:59;16.80;1.00
41324;DHT22;27073;51.128;4.220;2023-06-04T06:08:26;16.80;1.00
41324;DHT22;27073;51.128;4.220;2023-06-04T06:10:53;16.80;1.00
41324;DHT22;27073;51.128;4.220;2023-06-04T06:13:18;16.90;1.00
41324;DHT22;27073;51.128;4.220;2023-06-04T06:15:46;16.90;1.00
41324;DHT22;27073;51.128;4.220;2023-06-04T06:18:14;17.10;1.00
41324;DHT22;27073;51.128;4.220;2023-06-04T06:20:39;17.20;99.90
41324;DHT22;27073;51.128;4.220;2023-06-04T06:23:07;17.30;99.90
41324;DHT22;27073;51.128;4.220;2023-06-04T06:25:34;17.40;1.00
41324;DHT22;27073;51.128;4.220;2023-06-04T06:28:07;17.30;99.90
41324;DHT22;27073;51.128;4.220;2023-06-04T06:30:34;17.40;99.90
41324;DHT22;27073;51.128;4.220;2023-06-04T06:33:00;17.40;99.90
41324;DHT22;27073;51.128;4.220;2023-06-04T06:35:26;17.40;99.90
41324;DHT22;27073;51.128;4.220;2023-06-04T06:37:51;17.50;99.90
41324;DHT22;27073;51.128;4.220;2023-06-04T06:40:17;17.50;99.90
41324;DHT22;27073;51.128;4.220;2023-06-04T06:42:47;17.40;99.90
41324;DHT22;27073;51.128;4.220;2023-06-04T06:45:12;17.30;99.90
41324;DHT22;27073;51.128;4.220;2023-06-04T06:47:38;17.30;99.90
41324;DHT22;27073;51.128;4.220;2023-06-04T06:50:04;17.40;99.90
41324;DHT22;27073;51.128;4.220;2023-06-04T06:52:30;17.50;99.90
41324;DHT22;27073;51.128;4.220;2023-06-04T06:54:56;17.40;99.90
41324;DHT22;27073;51.128;4.220;2023-06-04T06:57:21;17.40;99.90
41324;DHT22;27073;51.128;4.220;2023-06-04T06:59:47;17.60;99.90
41324;DHT22;27073;51.128;4.220;2023-06-04T07:02:13;17.40;99.90
41324;DHT22;27073;51.128;4.220;2023-06-04T07:04:39;17.50;99.90
41324;DHT22;27073;51.128;4.220;2023-06-04T07:07:05;17.60;99.90
41324;DHT22;27073;51.128;4.220;2023-06-04T07:09:31;17.80;99.90
41324;DHT22;27073;51.128;4.220;2023-06-04T07:11:56;18.00;99.90
41324;DHT22;27073;51.128;4.220;2023-06-04T07:14:22;18.10;99.90
41324;DHT22;27073;51.128;4.220;2023-06-04T07:16:48;18.20;99.90
41324;DHT22;27073;51.128;4.220;2023-06-04T07:19:13;18.00;99.90
41324;DHT22;27073;51.128;4.220;2023-06-04T07:21:39;18.20;99.90
41324;DHT22;27073;51.128;4.220;2023-06-04T07:24:04;18.20;24.60
41324;DHT22;27073;51.128;4.220;2023-06-04T07:26:32;18.40;99.90
41324;DHT22;27073;51.128;4.220;2023-06-04T07:28:58;18.50;1.00
41324;DHT22;27073;51.128;4.220;2023-06-04T07:31:24;18.40;99.90
41324;DHT22;27073;51.128;4.220;2023-06-04T07:33:50;18.50;1.00
41324;DHT22;27073;51.128;4.220;2023-06-04T07:36:16;18.60;1.00
41324;DHT22;27073;51.128;4.220;2023-06-04T07:38:42;18.60;99.90
41324;DHT22;27073;51.128;4.220;2023-06-04T07:41:08;18.70;99.90
41324;DHT22;27073;51.128;4.220;2023-06-04T07:43:35;18.80;99.90
41324;DHT22;27073;51.128;4.220;2023-06-04T07:46:05;18.90;99.90
41324;DHT22;27073;51.128;4.220;2023-06-04T07:48:31;18.90;99.90
41324;DHT22;27073;51.128;4.220;2023-06-04T07:51:01;18.80;99.90
41324;DHT22;27073;51.128;4.220;2023-06-04T07:53:27;18.90;99.90
41324;DHT22;27073;51.128;4.220;2023-06-04T07:55:54;18.80;15.90
41324;DHT22;27073;51.128;4.220;2023-06-04T07:58:21;18.80;99.90
41324;DHT22;27073;51.128;4.220;2023-06-04T08:00:46;18.90;18.90
41324;DHT22;27073;51.128;4.220;2023-06-04T08:03:12;19.10;54.10
41324;DHT22;27073;51.128;4.220;2023-06-04T08:05:38;19.10;99.90
41324;DHT22;27073;51.128;4.220;2023-06-04T08:08:04;19.30;99.90
41324;DHT22;27073;51.128;4.220;2023-06-04T08:10:30;19.40;99.90
41324;DHT22;27073;51.128;4.220;2023-06-04T08:12:56;19.50;1.00
41324;DHT22;27073;51.128;4.220;2023-06-04T08:15:22;19.50;99.90
41324;DHT22;27073;51.128;4.220;2023-06-04T08:17:48;19.60;99.90
41324;DHT22;27073;51.128;4.220;2023-06-04T08:20:13;19.60;99.90
41324;DHT22;27073;51.128;4.220;2023-06-04T08:22:39;19.70;54.30
41324;DHT22;27073;51.128;4.220;2023-06-04T08:25:06;19.70;1.00
41324;DHT22;27073;51.128;4.220;2023-06-04T08:27:32;19.80;99.90
41324;DHT22;27073;51.128;4.220;2023-06-04T08:29:58;19.90;99.90
41324;DHT22;27073;51.128;4.220;2023-06-04T08:32:24;20.00;99.90
41324;DHT22;27073;51.128;4.220;2023-06-04T08:34:50;19.90;94.50
41324;DHT22;27073;51.128;4.220;2023-06-04T08:37:17;20.00;8.10
41324;DHT22;27073;51.128;4.220;2023-06-04T08:39:43;19.90;1.00
41324;DHT22;27073;51.128;4.220;2023-06-04T08:42:15;20.00;1.00
41324;DHT22;27073;51.128;4.220;2023-06-04T08:44:47;20.00;1.00
41324;DHT22;27073;51.128;4.220;2023-06-04T08:47:17;20.00;99.90
41324;DHT22;27073;51.128;4.220;2023-06-04T08:49:48;20.10;99.90
41324;DHT22;27073;51.128;4.220;2023-06-04T08:52:14;20.20;99.90
41324;DHT22;27073;51.128;4.220;2023-06-04T08:54:40;20.40;99.90
41324;DHT22;27073;51.128;4.220;2023-06-04T08:57:06;20.50;99.90
41324;DHT22;27073;51.128;4.220;2023-06-04T08:59:32;20.50;99.90
41324;DHT22;27073;51.128;4.220;2023-06-04T09:01:59;20.70;30.70
41324;DHT22;27073;51.128;4.220;2023-06-04T09:04:24;20.70;1.00
41324;DHT22;27073;51.128;4.220;2023-06-04T09:06:51;20.60;9.60
41324;DHT22;27073;51.128;4.220;2023-06-04T09:09:21;20.70;1.00
41324;DHT22;27073;51.128;4.220;2023-06-04T09:11:52;20.50;1.00
41324;DHT22;27073;51.128;4.220;2023-06-04T09:14:19;20.30;99.90
41324;DHT22;27073;51.128;4.220;2023-06-04T09:16:50;20.50;99.90
41324;DHT22;27073;51.128;4.220;2023-06-04T09:19:17;20.60;99.90
41324;DHT22;27073;51.128;4.220;2023-06-04T09:21:54;20.80;99.90
41324;DHT22;27073;51.128;4.220;2023-06-04T09:24:21;20.90;99.90
41324;DHT22;27073;51.128;4.220;2023-06-04T09:26:47;20.90;99.90
41324;DHT22;27073;51.128;4.220;2023-06-04T09:29:14;21.00;99.90
41324;DHT22;27073;51.128;4.220;2023-06-04T09:31:41;21.10;99.90
41324;DHT22;27073;51.128;4.220;2023-06-04T09:34:07;21.10;99.90
41324;DHT22;27073;51.128;4.220;2023-06-04T09:36:33;21.10;99.90
41324;DHT22;27073;51.128;4.220;2023-06-04T09:39:02;21.30;99.90
41324;DHT22;27073;51.128;4.220;2023-06-04T09:41:28;21.40;99.90
41324;DHT22;27073;51.128;4.220;2023-06-04T09:44:03;21.40;99.90
41324;DHT22;27073;51.128;4.220;2023-06-04T09:46:31;21.40;99.90
41324;DHT22;27073;51.128;4.220;2023-06-04T09:49:04;21.40;99.90
41324;DHT22;27073;51.128;4.220;2023-06-04T09:51:31;21.50;99.90
41324;DHT22;27073;51.128;4.220;2023-06-04T09:53:59;21.60;80.50
41324;DHT22;27073;51.128;4.220;2023-06-04T09:56:28;21.60;20.00
41324;DHT22;27073;51.128;4.220;2023-06-04T09:58:56;21.70;16.80
41324;DHT22;27073;51.128;4.220;2023-06-04T10:01:23;21.70;1.00
41324;DHT22;27073;51.128;4.220;2023-06-04T10:03:52;21.80;1.00
41324;DHT22;27073;51.128;4.220;2023-06-04T10:06:21;21.80;1.00
41324;DHT22;27073;51.128;4.220;2023-06-04T10:08:49;22.00;1.70
41324;DHT22;27073;51.128;4.220;2023-06-04T10:11:22;22.00;1.00
41324;DHT22;27073;51.128;4.220;2023-06-04T10:14:02;21.90;1.00
41324;DHT22;27073;51.128;4.220;2023-06-04T10:16:29;22.00;1.00
41324;DHT22;27073;51.128;4.220;2023-06-04T10:18:55;22.10;1.00
41324;DHT22;27073;51.128;4.220;2023-06-04T10:21:23;22.10;1.00
41324;DHT22;27073;51.128;4.220;2023-06-04T10:23:50;22.10;1.00
41324;DHT22;27073;51.128;4.220;2023-06-04T10:26:16;22.10;1.00
41324;DHT22;27073;51.128;4.220;2023-06-04T10:28:42;22.30;1.00
41324;DHT22;27073;51.128;4.220;2023-06-04T10:31:09;22.40;1.00
41324;DHT22;27073;51.128;4.220;2023-06-04T10:33:36;22.60;1.00
41324;DHT22;27073;51.128;4.220;2023-06-04T10:36:16;22.70;1.00
41324;DHT22;27073;51.128;4.220;2023-06-04T10:38:52;22.60;99.90
41324;DHT22;27073;51.128;4.220;2023-06-04T10:41:19;22.50;99.90
41324;DHT22;27073;51.128;4.220;2023-06-04T10:43:48;22.60;99.90
41324;DHT22;27073;51.128;4.220;2023-06-04T10:46:18;22.80;99.90
41324;DHT22;27073;51.128;4.220;2023-06-04T10:48:51;22.90;99.90
41324;DHT22;27073;51.128;4.220;2023-06-04T10:51:31;23.00;99.90
41324;DHT22;27073;51.128;4.220;2023-06-04T10:53:58;23.10;99.90
41324;DHT22;27073;51.128;4.220;2023-06-04T10:56:31;23.10;99.90
41324;DHT22;27073;51.128;4.220;2023-06-04T10:59:17;23.20;99.90
41324;DHT22;27073;51.128;4.220;2023-06-04T11:01:43;23.20;99.90
41324;DHT22;27073;51.128;4.220;2023-06-04T11:04:23;23.20;99.90
41324;DHT22;27073;51.128;4.220;2023-06-04T11:07:04;23.20;99.90
41324;DHT22;27073;51.128;4.220;2023-06-04T11:09:38;23.30;99.90
41324;DHT22;27073;51.128;4.220;2023-06-04T11:12:12;23.50;99.90
41324;DHT22;27073;51.128;4.220;2023-06-04T11:14:38;23.50;99.90
41324;DHT22;27073;51.128;4.220;2023-06-04T11:17:12;23.70;99.90
41324;DHT22;27073;51.128;4.220;2023-06-04T11:19:39;23.90;99.90
41324;DHT22;27073;51.128;4.220;2023-06-04T11:22:05;24.00;99.90
41324;DHT22;27073;51.128;4.220;2023-06-04T11:24:32;24.00;99.90
41324;DHT22;27073;51.128;4.220;2023-06-04T11:26:58;24.00;99.90
41324;DHT22;27073;51.128;4.220;2023-06-04T11:29:28;24.20;99.90
41324;DHT22;27073;51.128;4.220;2023-06-04T11:31:54;24.20;99.90
41324;DHT22;27073;51.128;4.220;2023-06-04T11:34:30;24.30;99.90
41324;DHT22;27073;51.128;4.220;2023-06-04T11:37:08;24.40;99.90
41324;DHT22;27073;51.128;4.220;2023-06-04T11:39:35;24.30;99.90
41324;DHT22;27073;51.128;4.220;2023-06-04T11:42:04;24.40;99.90
41324;DHT22;27073;51.128;4.220;2023-06-04T11:44:31;24.60;99.90
41324;DHT22;27073;51.128;4.220;2023-06-04T11:46:57;24.70;99.90
41324;DHT22;27073;51.128;4.220;2023-06-04T11:49:22;24.70;99.90
41324;DHT22;27073;51.128;4.220;2023-06-04T11:51:51;24.80;99.90
41324;DHT22;27073;51.128;4.220;2023-06-04T11:54:19;24.80;99.90
41324;DHT22;27073;51.128;4.220;2023-06-04T11:56:46;24.90;99.90
41324;DHT22;27073;51.128;4.220;2023-06-04T11:59:14;25.00;99.90
41324;DHT22;27073;51.128;4.220;2023-06-04T12:01:41;25.30;99.90
41324;DHT22;27073;51.128;4.220;2023-06-04T12:04:15;25.40;99.90
41324;DHT22;27073;51.128;4.220;2023-06-04T12:07:11;25.50;99.90
41324;DHT22;27073;51.128;4.220;2023-06-04T12:09:37;25.50;99.90
41324;DHT22;27073;51.128;4.220;2023-06-04T12:12:07;25.50;99.90
41324;DHT22;27073;51.128;4.220;2023-06-04T12:14:33;25.60;99.90
41324;DHT22;27073;51.128;4.220;2023-06-04T12:17:09;25.50;99.90
41324;DHT22;27073;51.128;4.220;2023-06-04T12:19:51;25.70;99.90
41324;DHT22;27073;51.128;4.220;2023-06-04T12:22:17;25.90;99.90
41324;DHT22;27073;51.128;4.220;2023-06-04T12:24:56;26.00;99.90
41324;DHT22;27073;51.128;4.220;2023-06-04T12:27:23;26.30;99.90
41324;DHT22;27073;51.128;4.220;2023-06-04T12:30:01;26.30;99.90
41324;DHT22;27073;51.128;4.220;2023-06-04T12:32:27;26.20;99.90
41324;DHT22;27073;51.128;4.220;2023-06-04T12:34:53;26.20;99.90
41324;DHT22;27073;51.128;4.220;2023-06-04T12:37:21;26.20;99.90
41324;DHT22;27073;51.128;4.220;2023-06-04T12:39:47;26.40;99.90
41324;DHT22;27073;51.128;4.220;2023-06-04T12:42:13;26.60;99.90
41324;DHT22;27073;51.128;4.220;2023-06-04T12:44:39;26.70;99.90
41324;DHT22;27073;51.128;4.220;2023-06-04T12:47:09;26.70;99.90
41324;DHT22;27073;51.128;4.220;2023-06-04T12:49:34;26.80;99.90
41324;DHT22;27073;51.128;4.220;2023-06-04T12:52:00;26.80;99.90
41324;DHT22;27073;51.128;4.220;2023-06-04T12:54:26;26.70;99.90
41324;DHT22;27073;51.128;4.220;2023-06-04T12:56:55;26.80;99.90
41324;DHT22;27073;51.128;4.220;2023-06-04T12:59:22;26.90;99.90
41324;DHT22;27073;51.128;4.220;2023-06-04T13:01:49;27.00;99.90
41324;DHT22;27073;51.128;4.220;2023-06-04T13:04:15;27.00;99.90
41324;DHT22;27073;51.128;4.220;2023-06-04T13:06:41;27.00;99.90
41324;DHT22;27073;51.128;4.220;2023-06-04T13:09:07;27.20;99.90
41324;DHT22;27073;51.128;4.220;2023-06-04T13:11:38;27.30;99.90
41324;DHT22;27073;51.128;4.220;2023-06-04T13:14:04;27.40;99.90
41324;DHT22;27073;51.128;4.220;2023-06-04T13:16:30;27.50;99.90
41324;DHT22;27073;51.128;4.220;2023-06-04T13:18:55;27.60;99.90
41324;DHT22;27073;51.128;4.220;2023-06-04T13:21:21;27.60;99.90
41324;DHT22;27073;51.128;4.220;2023-06-04T13:23:47;27.60;99.90
41324;DHT22;27073;51.128;4.220;2023-06-04T13:26:18;27.40;99.90
41324;DHT22;27073;51.128;4.220;2023-06-04T13:28:44;27.40;99.90
41324;DHT22;27073;51.128;4.220;2023-06-04T13:31:10;27.50;99.90
41324;DHT22;27073;51.128;4.220;2023-06-04T13:33:36;27.50;99.90
41324;DHT22;27073;51.128;4.220;2023-06-04T13:36:05;27.70;99.90
41324;DHT22;27073;51.128;4.220;2023-06-04T13:38:31;27.50;99.90
41324;DHT22;27073;51.128;4.220;2023-06-04T13:40:57;27.60;99.90
41324;DHT22;27073;51.128;4.220;2023-06-04T13:43:23;27.60;99.90
41324;DHT22;27073;51.128;4.220;2023-06-04T13:45:49;27.80;99.90
41324;DHT22;27073;51.128;4.220;2023-06-04T13:48:15;28.10;99.90
41324;DHT22;27073;51.128;4.220;2023-06-04T13:50:41;28.40;99.90
41324;DHT22;27073;51.128;4.220;2023-06-04T13:53:10;29.00;99.90
41324;DHT22;27073;51.128;4.220;2023-06-04T13:55:38;30.10;99.90
41324;DHT22;27073;51.128;4.220;2023-06-04T13:58:03;31.70;99.90
41324;DHT22;27073;51.128;4.220;2023-06-04T14:00:29;34.00;99.90
41324;DHT22;27073;51.128;4.220;2023-06-04T14:02:56;35.70;99.90
41324;DHT22;27073;51.128;4.220;2023-06-04T14:05:24;36.00;93.70
41324;DHT22;27073;51.128;4.220;2023-06-04T14:07:50;36.70;82.10
41324;DHT22;27073;51.128;4.220;2023-06-04T14:10:16;37.00;60.80
41324;DHT22;27073;51.128;4.220;2023-06-04T14:12:41;36.10;42.50
41324;DHT22;27073;51.128;4.220;2023-06-04T14:15:08;37.30;44.40
41324;DHT22;27073;51.128;4.220;2023-06-04T14:17:34;38.10;38.40
41324;DHT22;27073;51.128;4.220;2023-06-04T14:20:02;37.70;28.10
41324;DHT22;27073;51.128;4.220;2023-06-04T14:22:33;39.40;30.00
41324;DHT22;27073;51.128;4.220;2023-06-04T14:24:59;38.90;19.40
41324;DHT22;27073;51.128;4.220;2023-06-04T14:27:25;39.20;15.10
41324;DHT22;27073;51.128;4.220;2023-06-04T14:29:51;38.30;2.70
41324;DHT22;27073;51.128;4.220;2023-06-04T14:32:17;39.00;3.40
41324;DHT22;27073;51.128;4.220;2023-06-04T14:34:42;38.90;1.00
41324;DHT22;27073;51.128;4.220;2023-06-04T14:37:08;37.90;1.00
41324;DHT22;27073;51.128;4.220;2023-06-04T14:39:34;38.90;1.00
41324;DHT22;27073;51.128;4.220;2023-06-04T14:42:01;37.40;1.00
41324;DHT22;27073;51.128;4.220;2023-06-04T14:44:28;37.70;1.00
41324;DHT22;27073;51.128;4.220;2023-06-04T14:46:53;39.10;1.00
41324;DHT22;27073;51.128;4.220;2023-06-04T14:49:19;39.70;1.00
41324;DHT22;27073;51.128;4.220;2023-06-04T14:51:45;40.00;1.00
41324;DHT22;27073;51.128;4.220;2023-06-04T14:54:11;40.20;1.00
41324;DHT22;27073;51.128;4.220;2023-06-04T14:56:37;38.80;1.00
41324;DHT22;27073;51.128;4.220;2023-06-04T14:59:03;39.10;1.00
41324;DHT22;27073;51.128;4.220;2023-06-04T15:01:41;40.10;1.00
41324;DHT22;27073;51.128;4.220;2023-06-04T15:04:07;40.50;1.00
41324;DHT22;27073;51.128;4.220;2023-06-04T15:06:33;40.50;1.00
41324;DHT22;27073;51.128;4.220;2023-06-04T15:08:59;40.40;1.00
41324;DHT22;27073;51.128;4.220;2023-06-04T15:11:25;40.50;1.00
41324;DHT22;27073;51.128;4.220;2023-06-04T15:13:52;40.70;1.00
41324;DHT22;27073;51.128;4.220;2023-06-04T15:16:19;40.90;1.00
41324;DHT22;27073;51.128;4.220;2023-06-04T15:18:45;40.90;1.00
41324;DHT22;27073;51.128;4.220;2023-06-04T15:21:10;41.10;1.00
41324;DHT22;27073;51.128;4.220;2023-06-04T15:23:36;41.20;1.00
41324;DHT22;27073;51.128;4.220;2023-06-04T15:26:02;41.30;1.00
41324;DHT22;27073;51.128;4.220;2023-06-04T15:28:28;40.40;1.00
41324;DHT22;27073;51.128;4.220;2023-06-04T15:30:53;40.10;1.00
41324;DHT22;27073;51.128;4.220;2023-06-04T15:33:19;40.70;1.00
41324;DHT22;27073;51.128;4.220;2023-06-04T15:35:45;40.70;1.00
41324;DHT22;27073;51.128;4.220;2023-06-04T15:38:11;40.60;1.00
41324;DHT22;27073;51.128;4.220;2023-06-04T15:40:36;39.90;1.00
41324;DHT22;27073;51.128;4.220;2023-06-04T15:43:02;40.00;1.00
41324;DHT22;27073;51.128;4.220;2023-06-04T15:45:28;40.30;1.00